Time;durP1;ratioP1;P1;durP2;ratioP2;P2;SDS_P1;SDS_P2;PMS_P1;PMS_P2;Temp;Humidity;BMP_temperature;BMP_pressure;BME280_temperature;BME280_humidity;BME280_pressure;Samples;Min_cycle;Max_cycle;Signal;HPM_P1;HPM_P2
2021/09/12 00:02:19;;;;;;;0.40;0.20;;;18.70;99.90;;;;;;5055462;28;20289;-69
2021/09/12 00:04:45;;;;;;;3.27;2.03;;;18.70;99.90;;;;;;5055293;28;20471;-71
2021/09/12 00:07:10;;;;;;;0.40;0.20;;;18.70;99.90;;;;;;5055621;28;20542;-69
2021/09/12 00:09:36;;;;;;;2.07;1.90;;;18.80;99.90;;;;;;5055075;28;20431;-69
2021/09/12 00:12:02;;;;;;;1.03;0.87;;;18.80;99.90;;;;;;5055153;28;20188;-71
2021/09/12 00:14:27;;;;;;;2.43;1.77;;;18.70;99.90;;;;;;5054951;28;20473;-69
2021/09/12 00:16:53;;;;;;;1.53;1.13;;;18.70;99.90;;;;;;5053131;28;20188;-69
2021/09/12 00:19:19;;;;;;;1.67;1.57;;;18.80;99.90;;;;;;5053923;28;20258;-68
2021/09/12 00:21:44;;;;;;;1.20;0.80;;;18.80;99.90;;;;;;5055130;28;20181;-69
2021/09/12 00:24:10;;;;;;;2.10;2.00;;;18.70;99.90;;;;;;5054932;28;20213;-69
2021/09/12 00:26:36;;;;;;;0.40;0.17;;;18.70;99.90;;;;;;5054730;28;20176;-69
2021/09/12 00:29:02;;;;;;;1.63;1.17;;;18.70;99.90;;;;;;5054758;28;20452;-69
2021/09/12 00:31:28;;;;;;;0.67;0.67;;;18.70;99.90;;;;;;5055199;28;20193;-69
2021/09/12 00:33:53;;;;;;;1.40;1.30;;;18.70;99.90;;;;;;5054895;28;20519;-69
2021/09/12 00:36:19;;;;;;;3.07;2.10;;;18.80;99.90;;;;;;5053836;28;20246;-69
2021/09/12 00:38:44;;;;;;;0.93;0.77;;;18.80;99.90;;;;;;5054599;28;20191;-69
2021/09/12 00:41:10;;;;;;;2.97;1.33;;;18.70;99.90;;;;;;5054953;28;20267;-69
2021/09/12 00:43:35;;;;;;;0.63;0.60;;;18.70;99.90;;;;;;5054732;28;20657;-69
2021/09/12 00:46:06;;;;;;;2.30;1.13;;;18.80;99.90;;;;;;5054686;28;20185;-69
2021/09/12 00:48:34;;;;;;;0.60;0.60;;;18.80;99.90;;;;;;5054311;28;20169;-69
2021/09/12 00:50:59;;;;;;;2.17;2.03;;;18.80;99.90;;;;;;5054654;28;20446;-69
2021/09/12 00:53:29;;;;;;;0.73;0.30;;;18.80;99.90;;;;;;5054476;28;20901;-69
2021/09/12 00:55:57;;;;;;;1.00;0.90;;;18.80;99.90;;;;;;5054410;28;20271;-69
2021/09/12 00:58:24;;;;;;;0.40;0.17;;;18.90;99.90;;;;;;5054004;28;20559;-69
2021/09/12 01:00:50;;;;;;;0.40;0.20;;;18.90;99.90;;;;;;5053538;28;20431;-68
2021/09/12 01:03:15;;;;;;;0.40;0.20;;;18.80;99.90;;;;;;5054858;28;20477;-69
2021/09/12 01:05:42;;;;;;;0.90;0.37;;;18.80;99.90;;;;;;5054451;28;20896;-68
2021/09/12 01:08:08;;;;;;;1.60;1.07;;;18.80;99.90;;;;;;5054033;28;20223;-68
2021/09/12 01:10:34;;;;;;;0.53;0.53;;;18.70;99.90;;;;;;5053914;28;20427;-69
2021/09/12 01:12:59;;;;;;;1.03;0.97;;;18.70;99.90;;;;;;5054106;28;20505;-69
2021/09/12 01:15:26;;;;;;;2.10;2.00;;;18.60;99.90;;;;;;5053980;28;20510;-69
2021/09/12 01:17:52;;;;;;;0.40;0.20;;;18.60;99.90;;;;;;5053929;28;20187;-69
2021/09/12 01:20:17;;;;;;;2.20;1.80;;;18.50;99.90;;;;;;5053826;28;20419;-69
2021/09/12 01:22:45;;;;;;;0.50;0.40;;;18.60;99.90;;;;;;5054112;28;20187;-69
2021/09/12 01:25:10;;;;;;;3.23;2.63;;;18.60;99.90;;;;;;5053919;28;20212;-69
2021/09/12 01:27:36;;;;;;;0.50;0.40;;;18.60;99.90;;;;;;5053383;28;20436;-69
2021/09/12 01:30:03;;;;;;;0.90;0.90;;;18.60;99.90;;;;;;5053813;28;20249;-69
2021/09/12 01:32:28;;;;;;;3.73;1.60;;;18.80;99.90;;;;;;5052938;28;20177;-69
2021/09/12 01:34:54;;;;;;;0.53;0.53;;;18.70;99.90;;;;;;5053852;28;20445;-72
2021/09/12 01:37:19;;;;;;;0.50;0.40;;;18.80;99.90;;;;;;5053544;28;20188;-69
2021/09/12 01:39:45;;;;;;;0.60;0.57;;;18.70;99.90;;;;;;5053344;28;20195;-69
2021/09/12 01:42:10;;;;;;;1.60;0.97;;;18.80;99.90;;;;;;5053670;28;20192;-69
2021/09/12 01:44:36;;;;;;;0.40;0.20;;;18.80;99.90;;;;;;5053577;28;20216;-69
2021/09/12 01:47:02;;;;;;;1.83;1.17;;;18.80;99.90;;;;;;5053458;28;20192;-69
2021/09/12 01:49:27;;;;;;;0.40;0.20;;;18.80;99.90;;;;;;5053475;28;20550;-69
2021/09/12 01:51:53;;;;;;;0.50;0.50;;;18.60;99.90;;;;;;5053900;28;20181;-69
2021/09/12 01:54:19;;;;;;;1.90;1.80;;;18.60;99.90;;;;;;5053542;28;20275;-69
2021/09/12 01:56:45;;;;;;;0.40;0.20;;;18.80;99.90;;;;;;5053230;28;20423;-69
2021/09/12 01:59:10;;;;;;;0.40;0.20;;;18.70;99.90;;;;;;5053348;28;20529;-69
2021/09/12 02:01:36;;;;;;;0.40;0.20;;;18.60;99.90;;;;;;5053403;28;20180;-69
2021/09/12 02:04:02;;;;;;;0.40;0.20;;;18.60;99.90;;;;;;5053211;28;20204;-71
2021/09/12 02:06:28;;;;;;;0.40;0.20;;;18.60;99.90;;;;;;5052515;28;20192;-72
2021/09/12 02:08:53;;;;;;;0.40;0.20;;;18.60;99.90;;;;;;5053235;28;20574;-72
2021/09/12 02:11:19;;;;;;;0.50;0.50;;;18.50;99.90;;;;;;5053434;28;20172;-72
2021/09/12 02:13:45;;;;;;;0.50;0.30;;;18.50;99.90;;;;;;5053276;28;20192;-73
2021/09/12 02:16:11;;;;;;;0.83;0.83;;;18.50;99.90;;;;;;5053393;28;20435;-72
2021/09/12 02:18:36;;;;;;;1.80;0.63;;;18.50;99.90;;;;;;5053064;28;20577;-73
2021/09/12 02:21:02;;;;;;;1.13;1.00;;;18.50;99.90;;;;;;5053289;28;20510;-72
2021/09/12 02:23:28;;;;;;;0.87;0.87;;;18.50;99.90;;;;;;5053086;28;20239;-72
2021/09/12 02:25:53;;;;;;;0.40;0.17;;;18.40;99.90;;;;;;5053258;28;20310;-72
2021/09/12 02:28:19;;;;;;;0.40;0.20;;;18.40;99.90;;;;;;5053021;28;20268;-71
2021/09/12 02:30:45;;;;;;;0.53;0.53;;;18.50;99.90;;;;;;5053107;28;20183;-71
2021/09/12 02:33:11;;;;;;;0.40;0.20;;;18.50;99.90;;;;;;5053163;28;20177;-71
2021/09/12 02:35:36;;;;;;;0.50;0.50;;;18.50;99.90;;;;;;5053135;28;20810;-72
2021/09/12 02:38:02;;;;;;;0.40;0.20;;;18.50;99.90;;;;;;5053000;28;20200;-72
2021/09/12 02:40:27;;;;;;;0.40;0.10;;;18.60;99.90;;;;;;5056460;28;20196;-72
2021/09/12 02:42:54;;;;;;;1.43;1.33;;;18.60;99.90;;;;;;5056919;28;20204;-71
2021/09/12 02:45:19;;;;;;;0.40;0.20;;;18.60;99.90;;;;;;5056992;28;20588;-72
2021/09/12 02:47:45;;;;;;;0.40;0.30;;;18.60;99.90;;;;;;5056717;28;20509;-71
2021/09/12 02:50:10;;;;;;;0.40;0.20;;;18.60;99.90;;;;;;5056678;28;20234;-72
2021/09/12 02:52:36;;;;;;;0.43;0.27;;;18.60;99.90;;;;;;5056921;28;20618;-72
2021/09/12 02:55:03;;;;;;;0.53;0.50;;;18.60;99.90;;;;;;5058531;28;20185;-69
2021/09/12 02:57:29;;;;;;;0.53;0.30;;;18.60;99.90;;;;;;5056641;28;20268;-71
2021/09/12 02:59:56;;;;;;;0.40;0.20;;;18.80;99.90;;;;;;5056282;28;20538;-71
2021/09/12 03:02:22;;;;;;;0.40;0.20;;;18.90;99.90;;;;;;5056513;28;20207;-72
2021/09/12 03:04:47;;;;;;;0.50;0.40;;;18.80;99.90;;;;;;5056515;28;21002;-72
2021/09/12 03:07:13;;;;;;;0.77;0.53;;;18.70;99.90;;;;;;5056376;28;20570;-71
2021/09/12 03:09:40;;;;;;;1.03;0.73;;;18.60;99.90;;;;;;5056323;28;20295;-71
2021/09/12 03:12:06;;;;;;;1.53;1.40;;;18.50;99.90;;;;;;5056441;28;20455;-72
2021/09/12 03:14:32;;;;;;;0.40;0.30;;;18.60;99.90;;;;;;5056241;28;20529;-71
2021/09/12 03:16:58;;;;;;;0.40;0.23;;;18.60;99.90;;;;;;5056116;28;20431;-72
2021/09/12 03:19:23;;;;;;;0.50;0.40;;;18.60;99.90;;;;;;5055125;28;20188;-71
2021/09/12 03:21:49;;;;;;;0.40;0.30;;;18.70;99.90;;;;;;5056114;28;20427;-69
2021/09/12 03:24:14;;;;;;;6.63;3.47;;;18.60;99.90;;;;;;5056090;28;20216;-68
2021/09/12 03:26:40;;;;;;;0.40;0.10;;;18.50;99.90;;;;;;5055969;28;20260;-69
2021/09/12 03:29:06;;;;;;;0.97;0.97;;;18.50;99.90;;;;;;5054995;28;20242;-69
2021/09/12 03:31:32;;;;;;;0.60;0.53;;;18.60;99.90;;;;;;5056105;28;20648;-69
2021/09/12 03:33:57;;;;;;;0.40;0.20;;;18.80;99.90;;;;;;5054995;28;20529;-69
2021/09/12 03:36:23;;;;;;;0.50;0.50;;;18.80;99.90;;;;;;5055888;28;20192;-69
2021/09/12 03:38:48;;;;;;;0.60;0.33;;;18.70;99.90;;;;;;5055588;28;20308;-69
2021/09/12 03:41:14;;;;;;;0.67;0.57;;;18.40;99.90;;;;;;5055889;28;20193;-69
2021/09/12 03:43:40;;;;;;;0.60;0.53;;;18.40;99.90;;;;;;5055672;28;20205;-69
2021/09/12 03:46:06;;;;;;;0.63;0.63;;;18.30;99.90;;;;;;5055590;28;20431;-69
2021/09/12 03:48:32;;;;;;;1.37;1.37;;;18.30;99.90;;;;;;5055354;28;20899;-69
2021/09/12 03:50:57;;;;;;;0.40;0.20;;;18.40;99.90;;;;;;5055217;28;20196;-69
2021/09/12 03:53:23;;;;;;;0.43;0.20;;;18.30;99.90;;;;;;5055574;28;20192;-69
2021/09/12 03:55:48;;;;;;;0.60;0.20;;;18.20;99.90;;;;;;5055569;28;20192;-69
2021/09/12 03:58:14;;;;;;;4.50;3.30;;;18.10;99.90;;;;;;5055076;28;20208;-69
2021/09/12 04:00:40;;;;;;;4.70;4.30;;;18.00;99.90;;;;;;5054521;28;20177;-69
2021/09/12 04:03:05;;;;;;;0.40;0.30;;;18.00;99.90;;;;;;5055243;28;20184;-69
2021/09/12 04:05:31;;;;;;;1.40;1.13;;;18.10;99.90;;;;;;5055427;28;20609;-71
2021/09/12 04:07:56;;;;;;;0.53;0.53;;;18.20;99.90;;;;;;5055233;28;20200;-71
2021/09/12 04:10:22;;;;;;;0.40;0.20;;;18.10;99.90;;;;;;5055321;28;20169;-72
2021/09/12 04:12:48;;;;;;;0.40;0.20;;;18.00;99.90;;;;;;5055359;28;20552;-72
2021/09/12 04:15:13;;;;;;;0.40;0.20;;;18.10;99.90;;;;;;5055251;28;20200;-72
2021/09/12 04:17:39;;;;;;;0.60;0.40;;;18.10;99.90;;;;;;5055139;28;20181;-72
2021/09/12 04:20:05;;;;;;;0.40;0.20;;;18.20;99.90;;;;;;5054987;28;20641;-71
2021/09/12 04:22:31;;;;;;;0.40;0.20;;;18.20;99.90;;;;;;5054973;28;20177;-73
2021/09/12 04:24:56;;;;;;;0.40;0.20;;;18.10;99.90;;;;;;5054969;28;20459;-72
2021/09/12 04:27:22;;;;;;;0.40;0.20;;;18.10;99.90;;;;;;5054899;28;20177;-72
2021/09/12 04:29:47;;;;;;;0.40;0.20;;;18.20;99.90;;;;;;5054726;28;20223;-72
2021/09/12 04:32:13;;;;;;;0.40;0.20;;;18.20;99.90;;;;;;5054820;28;20188;-72
2021/09/12 04:34:39;;;;;;;0.40;0.20;;;18.30;99.90;;;;;;5054859;28;20206;-72
2021/09/12 04:37:05;;;;;;;0.40;0.20;;;18.30;99.90;;;;;;5054699;28;20406;-71
2021/09/12 04:39:30;;;;;;;0.60;0.60;;;18.30;99.90;;;;;;5054673;28;20675;-72
2021/09/12 04:41:56;;;;;;;0.50;0.50;;;18.30;99.90;;;;;;5054658;28;20517;-71
2021/09/12 04:44:21;;;;;;;0.60;0.57;;;18.30;99.90;;;;;;5054582;28;20201;-72
2021/09/12 04:46:47;;;;;;;1.43;1.33;;;18.30;99.90;;;;;;5054446;28;20180;-71
2021/09/12 04:49:12;;;;;;;0.50;0.20;;;18.30;99.90;;;;;;5054348;28;20614;-71
2021/09/12 04:51:38;;;;;;;0.40;0.20;;;18.40;99.90;;;;;;5054423;28;20193;-72
2021/09/12 04:54:04;;;;;;;0.50;0.33;;;18.40;99.90;;;;;;5054609;28;20180;-72
2021/09/12 04:56:29;;;;;;;0.60;0.30;;;18.40;99.90;;;;;;5054320;28;20534;-71
2021/09/12 04:58:55;;;;;;;0.60;0.50;;;18.30;99.90;;;;;;5053869;28;20215;-71
2021/09/12 05:01:20;;;;;;;0.40;0.20;;;18.40;99.90;;;;;;5053242;28;20331;-72
2021/09/12 05:03:46;;;;;;;0.40;0.20;;;18.20;99.90;;;;;;5054088;28;20242;-71
2021/09/12 05:06:11;;;;;;;1.23;0.93;;;18.10;99.90;;;;;;5054214;28;20227;-71
2021/09/12 05:08:37;;;;;;;0.40;0.20;;;18.10;99.90;;;;;;5053865;28;20181;-69
2021/09/12 05:11:03;;;;;;;0.50;0.37;;;18.10;99.90;;;;;;5054121;28;20543;-69
2021/09/12 05:13:29;;;;;;;0.53;0.40;;;18.20;99.90;;;;;;5054133;28;20193;-69
2021/09/12 05:15:54;;;;;;;1.20;1.03;;;18.40;99.90;;;;;;5054181;28;20896;-69
2021/09/12 05:18:20;;;;;;;1.03;0.97;;;18.40;99.90;;;;;;5053791;28;20260;-71
2021/09/12 05:20:46;;;;;;;0.60;0.40;;;18.40;99.90;;;;;;5053880;28;20173;-72
2021/09/12 05:23:12;;;;;;;0.50;0.30;;;18.40;99.90;;;;;;5053861;28;20426;-69
2021/09/12 05:25:38;;;;;;;0.80;0.80;;;18.50;99.90;;;;;;5053947;28;20423;-69
2021/09/12 05:28:03;;;;;;;1.23;0.90;;;18.50;99.90;;;;;;5053808;28;20519;-71
2021/09/12 05:30:29;;;;;;;0.97;0.87;;;18.40;99.90;;;;;;5053678;28;20547;-71
2021/09/12 05:32:55;;;;;;;1.13;1.13;;;18.30;99.90;;;;;;5053752;28;20183;-69
2021/09/12 05:35:20;;;;;;;0.40;0.20;;;18.60;99.90;;;;;;5053896;28;20427;-69
2021/09/12 05:37:46;;;;;;;1.83;1.70;;;18.70;99.90;;;;;;5053562;28;20617;-71
2021/09/12 05:40:12;;;;;;;0.40;0.20;;;18.70;99.90;;;;;;5053526;28;20191;-69
2021/09/12 05:42:39;;;;;;;1.03;1.03;;;18.70;99.90;;;;;;5053482;28;20438;-69
2021/09/12 05:45:06;;;;;;;0.40;0.20;;;18.70;99.90;;;;;;5053399;28;20467;-69
2021/09/12 05:47:32;;;;;;;0.97;0.97;;;18.60;99.90;;;;;;5053424;28;20455;-69
2021/09/12 05:49:58;;;;;;;1.03;0.93;;;18.70;99.90;;;;;;5053399;28;20758;-69
2021/09/12 05:52:24;;;;;;;9.03;1.23;;;18.80;99.90;;;;;;5053558;28;20451;-69
2021/09/12 05:54:49;;;;;;;1.10;1.10;;;18.80;99.90;;;;;;5053487;28;20469;-69
2021/09/12 05:57:15;;;;;;;1.03;1.03;;;18.90;99.90;;;;;;5053320;28;20259;-67
2021/09/12 05:59:40;;;;;;;6.53;6.00;;;19.00;99.90;;;;;;5053339;28;20330;-68
2021/09/12 06:02:07;;;;;;;0.97;0.87;;;18.90;99.90;;;;;;5053385;28;20666;-69
2021/09/12 06:04:33;;;;;;;0.40;0.20;;;18.70;99.90;;;;;;5053460;28;20204;-69
2021/09/12 06:07:03;;;;;;;4.10;3.43;;;18.80;99.90;;;;;;5052561;28;20431;-68
2021/09/12 06:09:29;;;;;;;0.67;0.40;;;18.90;99.90;;;;;;5053266;28;20430;-69
2021/09/12 06:11:54;;;;;;;2.27;1.90;;;18.90;99.90;;;;;;5053421;28;20427;-71
2021/09/12 06:14:20;;;;;;;1.33;1.13;;;19.10;99.90;;;;;;5057078;28;20962;-69
2021/09/12 06:16:46;;;;;;;0.60;0.50;;;19.10;99.90;;;;;;5056409;28;20193;-71
2021/09/12 06:19:12;;;;;;;0.40;0.20;;;19.00;99.90;;;;;;5057516;28;20179;-71
2021/09/12 06:21:38;;;;;;;0.40;0.20;;;19.10;99.90;;;;;;5057746;28;20605;-71
2021/09/12 06:24:03;;;;;;;0.40;0.20;;;19.20;99.90;;;;;;5056853;28;20549;-71
2021/09/12 06:26:29;;;;;;;1.60;1.37;;;19.40;99.90;;;;;;5057500;28;20665;-72
2021/09/12 06:28:55;;;;;;;0.50;0.20;;;19.40;99.90;;;;;;5057290;28;20558;-72
2021/09/12 06:31:21;;;;;;;0.53;0.53;;;19.50;99.90;;;;;;5057216;28;20695;-71
2021/09/12 06:33:47;;;;;;;0.40;0.23;;;19.50;99.90;;;;;;5056177;28;20185;-71
2021/09/12 06:36:13;;;;;;;4.30;1.20;;;19.60;99.90;;;;;;5057255;28;20425;-71
2021/09/12 06:38:38;;;;;;;0.50;0.40;;;19.50;99.90;;;;;;5055887;28;20495;-72
2021/09/12 06:41:06;;;;;;;3.07;2.97;;;19.40;99.90;;;;;;5057265;28;20426;-72
2021/09/12 06:43:32;;;;;;;0.50;0.50;;;19.50;99.90;;;;;;5056854;28;20395;-71
2021/09/12 06:45:57;;;;;;;0.40;0.20;;;19.60;99.90;;;;;;5056769;28;20501;-77
2021/09/12 06:48:23;;;;;;;0.40;0.20;;;19.80;99.90;;;;;;5056856;28;20201;-71
2021/09/12 06:50:48;;;;;;;0.77;0.50;;;20.00;99.90;;;;;;5056923;28;20252;-71
2021/09/12 06:53:14;;;;;;;0.60;0.40;;;20.00;99.90;;;;;;5057096;28;20190;-71
2021/09/12 06:55:40;;;;;;;1.57;1.47;;;20.00;99.90;;;;;;5056893;28;20392;-71
2021/09/12 06:58:06;;;;;;;0.40;0.23;;;20.10;99.90;;;;;;5056591;28;20199;-71
2021/09/12 07:00:32;;;;;;;0.50;0.40;;;20.10;99.90;;;;;;5056875;28;20427;-69
2021/09/12 07:02:58;;;;;;;1.80;1.07;;;20.20;99.90;;;;;;5056918;28;20606;-69
2021/09/12 07:05:24;;;;;;;0.40;0.20;;;20.10;99.90;;;;;;5056686;28;20498;-69
2021/09/12 07:07:50;;;;;;;0.40;0.20;;;20.00;99.90;;;;;;5056538;28;20429;-69
2021/09/12 07:10:18;;;;;;;0.40;0.20;;;20.40;99.90;;;;;;5056737;28;20454;-69
2021/09/12 07:12:44;;;;;;;0.40;0.20;;;20.50;99.90;;;;;;5056860;28;20201;-69
2021/09/12 07:15:10;;;;;;;0.70;0.63;;;20.40;99.90;;;;;;5056607;28;20505;-69
2021/09/12 07:17:35;;;;;;;2.57;1.50;;;20.50;99.90;;;;;;5056274;28;20938;-69
2021/09/12 07:20:01;;;;;;;0.70;0.33;;;20.50;99.90;;;;;;5056105;28;20231;-69
2021/09/12 07:22:27;;;;;;;0.50;0.40;;;20.40;99.90;;;;;;5056426;28;20242;-69
2021/09/12 07:24:52;;;;;;;0.60;0.60;;;20.40;99.90;;;;;;5055565;28;20642;-69
2021/09/12 07:27:18;;;;;;;0.73;0.73;;;20.60;99.90;;;;;;5056220;28;20602;-71
2021/09/12 07:29:44;;;;;;;0.90;0.87;;;20.90;99.90;;;;;;5056092;28;20181;-69
2021/09/12 07:32:09;;;;;;;0.50;0.20;;;21.00;18.80;;;;;;5055218;28;20562;-69
2021/09/12 07:34:35;;;;;;;0.40;0.20;;;20.90;1.00;;;;;;5056588;28;20187;-69
2021/09/12 07:37:00;;;;;;;2.10;2.00;;;21.00;5.40;;;;;;5055739;28;20177;-69
2021/09/12 07:39:26;;;;;;;0.50;0.30;;;21.10;13.80;;;;;;5054620;28;20184;-69
2021/09/12 07:41:51;;;;;;;0.93;0.93;;;21.10;1.00;;;;;;5055902;28;20195;-69
2021/09/12 07:44:18;;;;;;;0.40;0.20;;;21.30;1.00;;;;;;5055367;28;20201;-69
2021/09/12 07:46:44;;;;;;;0.40;0.20;;;21.60;1.00;;;;;;5056142;28;20238;-69
2021/09/12 07:49:09;;;;;;;5.13;1.90;;;21.70;1.00;;;;;;5055403;28;20779;-69
2021/09/12 07:51:35;;;;;;;0.40;0.20;;;21.60;1.00;;;;;;5055670;28;20432;-69
2021/09/12 07:54:01;;;;;;;0.73;0.60;;;21.70;1.00;;;;;;5055987;28;20185;-69
2021/09/12 07:56:27;;;;;;;0.60;0.40;;;21.70;1.00;;;;;;5055899;28;20180;-71
2021/09/12 07:58:53;;;;;;;0.50;0.40;;;21.60;1.00;;;;;;5055518;28;20780;-69
2021/09/12 08:01:19;;;;;;;1.57;1.47;;;21.50;1.00;;;;;;5054664;28;20180;-69
2021/09/12 08:03:45;;;;;;;1.07;0.67;;;21.10;1.00;;;;;;5055254;28;20469;-70
2021/09/12 08:06:11;;;;;;;0.40;0.20;;;21.10;30.70;;;;;;5054522;28;20180;-69
2021/09/12 08:08:36;;;;;;;0.50;0.30;;;21.40;10.80;;;;;;5055151;28;20755;-72
2021/09/12 08:11:02;;;;;;;2.90;2.70;;;22.00;1.00;;;;;;5054482;28;20184;-69
2021/09/12 08:13:28;;;;;;;0.40;0.20;;;22.00;1.00;;;;;;5055599;28;20208;-69
2021/09/12 08:15:53;;;;;;;0.50;0.50;;;22.00;1.00;;;;;;5055969;28;20184;-70
2021/09/12 08:18:19;;;;;;;2.00;1.90;;;21.90;1.00;;;;;;5055033;28;20255;-69
2021/09/12 08:20:46;;;;;;;0.53;0.50;;;21.90;1.00;;;;;;5055543;28;20610;-70
2021/09/12 08:23:12;;;;;;;0.40;0.20;;;21.60;1.00;;;;;;5055118;28;20497;-72
2021/09/12 08:25:38;;;;;;;0.50;0.23;;;21.60;1.00;;;;;;5055071;28;20432;-69
2021/09/12 08:28:04;;;;;;;4.73;1.40;;;21.30;1.00;;;;;;5054764;28;20187;-69
2021/09/12 08:30:30;;;;;;;0.40;0.10;;;21.20;1.00;;;;;;5054782;28;20526;-69
2021/09/12 08:32:55;;;;;;;0.53;0.40;;;20.90;99.90;;;;;;5054893;28;20849;-69
2021/09/12 08:35:21;;;;;;;0.40;0.10;;;21.10;84.20;;;;;;5054434;28;20888;-69
2021/09/12 08:37:47;;;;;;;0.40;0.20;;;20.90;50.70;;;;;;5053601;28;20267;-71
2021/09/12 08:40:13;;;;;;;0.40;0.20;;;20.90;75.00;;;;;;5054738;28;20269;-70
2021/09/12 08:42:42;;;;;;;0.40;0.20;;;21.00;54.60;;;;;;5053824;28;20261;-72
2021/09/12 08:45:08;;;;;;;2.37;2.13;;;20.80;56.10;;;;;;5054356;28;20935;-71
2021/09/12 08:47:34;;;;;;;0.60;0.40;;;20.60;99.90;;;;;;5054487;28;20427;-72
2021/09/12 08:50:00;;;;;;;0.57;0.37;;;20.50;99.90;;;;;;5054734;28;20419;-71
2021/09/12 08:52:26;;;;;;;0.80;0.73;;;20.50;99.90;;;;;;5054554;28;20423;-70
2021/09/12 08:54:51;;;;;;;0.50;0.47;;;20.10;99.90;;;;;;5054871;28;20227;-71
2021/09/12 08:57:17;;;;;;;1.20;1.20;;;20.10;99.90;;;;;;5054310;28;20512;-71
2021/09/12 08:59:50;;;;;;;2.47;1.70;;;20.10;99.90;;;;;;5053383;28;20708;-71
2021/09/12 09:02:23;;;;;;;0.40;0.20;;;20.20;99.90;;;;;;5053621;28;20185;-71
2021/09/12 09:04:49;;;;;;;2.87;2.67;;;20.60;99.90;;;;;;5054206;28;20800;-71
2021/09/12 09:07:14;;;;;;;0.40;0.20;;;21.00;39.50;;;;;;5054531;28;20427;-71
2021/09/12 09:09:46;;;;;;;4.97;3.23;;;21.50;1.00;;;;;;5054125;28;20181;-71
2021/09/12 09:12:26;;;;;;;3.20;2.17;;;21.90;1.00;;;;;;5054693;28;20185;-69
2021/09/12 09:15:06;;;;;;;2.23;1.50;;;22.00;99.90;;;;;;5053907;28;20441;-69
2021/09/12 09:17:40;;;;;;;1.80;1.40;;;22.10;99.90;;;;;;5054095;28;20767;-69
2021/09/12 09:20:07;;;;;;;1.03;0.93;;;21.80;99.90;;;;;;5054040;28;20423;-68
2021/09/12 09:22:39;;;;;;;2.60;1.10;;;21.80;1.00;;;;;;5053903;28;20573;-70
2021/09/12 09:25:20;;;;;;;4.00;2.40;;;21.70;1.00;;;;;;5053914;28;20459;-69
2021/09/12 09:27:53;;;;;;;2.97;2.70;;;21.90;1.00;;;;;;5053739;28;20958;-69
2021/09/12 09:30:19;;;;;;;2.03;1.23;;;22.50;99.90;;;;;;5053560;28;20455;-70
2021/09/12 09:32:48;;;;;;;3.90;3.60;;;22.40;99.90;;;;;;5052822;28;20912;-68
2021/09/12 09:35:24;;;;;;;2.73;2.43;;;22.10;99.90;;;;;;5053689;28;20920;-69
2021/09/12 09:37:51;;;;;;;0.50;0.37;;;22.10;99.90;;;;;;5053628;28;20492;-69
2021/09/12 09:40:23;;;;;;;1.73;1.63;;;22.40;99.90;;;;;;5053623;28;20431;-69
2021/09/12 09:42:51;;;;;;;2.83;2.30;;;22.70;99.90;;;;;;5053628;28;20470;-69
2021/09/12 09:45:19;;;;;;;1.57;0.77;;;22.50;1.00;;;;;;5052653;28;20466;-69
2021/09/12 09:47:46;;;;;;;3.40;1.70;;;22.50;87.70;;;;;;5053194;28;20509;-69
2021/09/12 09:50:18;;;;;;;1.73;1.63;;;22.50;1.00;;;;;;5052254;28;20465;-69
2021/09/12 09:52:46;;;;;;;0.60;0.57;;;22.20;99.90;;;;;;5052604;28;20431;-69
2021/09/12 09:55:19;;;;;;;0.60;0.60;;;22.20;99.90;;;;;;5052386;28;20509;-69
2021/09/12 09:57:51;;;;;;;0.50;0.30;;;22.60;30.20;;;;;;5053348;28;20521;-69
2021/09/12 10:00:17;;;;;;;0.47;0.20;;;22.70;1.00;;;;;;5053226;28;20424;-70
2021/09/12 10:02:46;;;;;;;0.60;0.30;;;22.50;99.90;;;;;;5052536;28;20454;-69
2021/09/12 10:05:20;;;;;;;2.70;1.63;;;22.40;23.70;;;;;;5053321;28;20804;-69
2021/09/12 10:07:47;;;;;;;2.80;1.23;;;22.10;99.90;;;;;;5052294;28;20516;-69
2021/09/12 10:10:15;;;;;;;1.43;1.43;;;22.30;99.90;;;;;;5053318;28;20438;-69
2021/09/12 10:13:06;;;;;;;7.43;4.10;;;22.60;99.90;;;;;;5053461;28;20856;-69
2021/09/12 10:15:35;;;;;;;0.80;0.60;;;22.60;1.00;;;;;;5053626;28;20435;-69
2021/09/12 10:18:01;;;;;;;0.93;0.83;;;22.60;99.90;;;;;;5053229;28;20427;-70
2021/09/12 10:20:28;;;;;;;0.60;0.50;;;22.90;1.00;;;;;;5053730;28;20431;-70
2021/09/12 10:23:01;;;;;;;0.83;0.80;;;23.00;1.00;;;;;;5035725;28;20480;-70
2021/09/12 10:25:46;;;;;;;2.30;2.20;;;22.90;1.00;;;;;;5053123;28;20467;-72
2021/09/12 10:28:12;;;;;;;0.77;0.40;;;22.70;1.00;;;;;;5052887;28;20427;-73
2021/09/12 10:30:42;;;;;;;1.13;0.97;;;22.40;95.40;;;;;;5052228;28;20437;-72
2021/09/12 10:33:08;;;;;;;2.10;1.37;;;22.10;99.90;;;;;;5053465;28;20169;-73
2021/09/12 10:35:47;;;;;;;0.40;0.20;;;22.10;99.90;;;;;;5052745;28;20430;-72
2021/09/12 10:38:26;;;;;;;9.00;1.87;;;22.00;99.90;;;;;;5052699;28;20214;-73
2021/09/12 10:40:53;;;;;;;0.50;0.30;;;22.10;99.90;;;;;;5053412;28;20782;-72
2021/09/12 10:43:25;;;;;;;1.27;0.90;;;22.40;99.90;;;;;;5053067;28;20435;-70
2021/09/12 10:46:06;;;;;;;3.70;2.10;;;22.70;44.50;;;;;;5053250;28;20435;-70
2021/09/12 10:48:46;;;;;;;0.97;0.87;;;22.70;5.40;;;;;;5052638;28;20750;-70
2021/09/12 10:51:17;;;;;;;0.40;0.20;;;22.50;99.90;;;;;;5052878;28;20463;-70
2021/09/12 10:53:43;;;;;;;0.40;0.23;;;22.50;99.90;;;;;;5052928;28;20435;-70
2021/09/12 10:56:18;;;;;;;0.77;0.60;;;22.70;99.90;;;;;;5051861;28;20431;-69
2021/09/12 10:58:45;;;;;;;0.50;0.50;;;22.80;1.00;;;;;;5052496;28;20207;-70
2021/09/12 11:01:27;;;;;;;0.40;0.20;;;22.80;1.00;;;;;;5055830;28;20510;-69
2021/09/12 11:03:58;;;;;;;0.40;0.20;;;23.30;1.00;;;;;;5056743;28;20487;-70
2021/09/12 11:06:28;;;;;;;1.73;1.63;;;23.70;1.00;;;;;;5056573;28;20437;-72
2021/09/12 11:08:55;;;;;;;0.40;0.17;;;24.10;1.00;;;;;;5055989;28;20499;-72
2021/09/12 11:11:24;;;;;;;1.73;1.63;;;24.10;1.00;;;;;;5056263;28;20427;-72
2021/09/12 11:13:52;;;;;;;0.60;0.40;;;23.70;99.90;;;;;;5055495;28;20888;-72
2021/09/12 11:16:20;;;;;;;1.73;1.07;;;23.30;1.00;;;;;;5056391;28;20477;-72
2021/09/12 11:18:59;;;;;;;0.83;0.83;;;23.10;1.00;;;;;;5056001;28;20434;-72
2021/09/12 11:21:36;;;;;;;0.40;0.10;;;23.30;1.00;;;;;;5056262;28;20423;-70
2021/09/12 11:24:16;;;;;;;2.20;0.67;;;23.30;99.90;;;;;;5055154;28;20961;-70
2021/09/12 11:26:47;;;;;;;0.73;0.60;;;23.60;99.90;;;;;;5056212;28;20423;-70
2021/09/12 11:29:21;;;;;;;1.27;1.17;;;23.50;99.90;;;;;;5055822;28;20435;-70
2021/09/12 11:31:53;;;;;;;1.60;0.70;;;23.60;99.90;;;;;;5056179;28;20423;-70
2021/09/12 11:34:23;;;;;;;0.50;0.30;;;23.80;26.30;;;;;;5056179;28;20423;-70
2021/09/12 11:36:54;;;;;;;0.60;0.57;;;23.80;1.00;;;;;;5055063;28;20427;-70
2021/09/12 11:39:25;;;;;;;1.47;1.27;;;23.10;99.90;;;;;;5054992;28;20806;-70
2021/09/12 11:41:54;;;;;;;0.50;0.33;;;23.00;1.00;;;;;;5055840;28;20435;-70
2021/09/12 11:44:29;;;;;;;1.37;1.27;;;23.00;99.90;;;;;;5055710;28;20950;-70
2021/09/12 11:46:54;;;;;;;0.50;0.40;;;23.00;1.00;;;;;;5055891;28;20502;-70
2021/09/12 11:49:20;;;;;;;1.27;1.03;;;23.20;1.00;;;;;;5055696;28;20455;-70
2021/09/12 11:51:49;;;;;;;0.53;0.43;;;23.00;1.00;;;;;;5055671;28;20211;-70
2021/09/12 11:54:17;;;;;;;0.40;0.13;;;23.10;1.00;;;;;;5055609;28;20177;-70
2021/09/12 11:56:43;;;;;;;0.60;0.30;;;23.10;1.00;;;;;;5055456;28;20514;-70
2021/09/12 11:59:11;;;;;;;2.37;1.80;;;23.50;99.90;;;;;;5055408;28;20455;-70
2021/09/12 12:01:39;;;;;;;0.73;0.73;;;23.30;58.60;;;;;;5055652;28;20438;-70
2021/09/12 12:04:06;;;;;;;0.40;0.20;;;23.40;99.90;;;;;;5055448;28;20486;-70
2021/09/12 12:06:33;;;;;;;0.60;0.30;;;23.30;1.00;;;;;;5055445;28;20423;-70
2021/09/12 12:09:25;;;;;;;0.40;0.10;;;23.40;99.90;;;;;;5053944;28;20503;-70
2021/09/12 12:11:52;;;;;;;2.10;2.00;;;23.90;1.00;;;;;;5055244;28;20423;-70
2021/09/12 12:14:25;;;;;;;0.40;0.20;;;23.90;1.00;;;;;;5054231;28;20440;-70
2021/09/12 12:16:52;;;;;;;0.50;0.30;;;23.80;1.00;;;;;;5054438;28;20761;-70
2021/09/12 12:19:19;;;;;;;0.40;0.20;;;23.80;1.00;;;;;;5054357;28;20793;-69
2021/09/12 12:21:47;;;;;;;0.40;0.10;;;23.70;1.10;;;;;;5054472;28;20427;-70
2021/09/12 12:24:19;;;;;;;0.40;0.20;;;23.90;99.90;;;;;;5053868;28;20469;-69
2021/09/12 12:26:54;;;;;;;1.67;0.60;;;24.20;1.00;;;;;;5055219;28;20423;-69
2021/09/12 12:29:28;;;;;;;2.03;1.37;;;24.40;99.90;;;;;;5055050;28;20906;-69
2021/09/12 12:31:55;;;;;;;0.50;0.43;;;23.80;99.90;;;;;;5055155;28;20427;-69
2021/09/12 12:34:37;;;;;;;1.60;1.00;;;23.70;99.90;;;;;;5055059;28;20442;-69
2021/09/12 12:37:04;;;;;;;1.17;0.60;;;23.80;99.90;;;;;;5054834;28;20474;-69
2021/09/12 12:39:30;;;;;;;0.60;0.40;;;23.70;1.00;;;;;;5054681;28;20446;-69
2021/09/12 12:41:59;;;;;;;1.60;0.67;;;23.70;1.00;;;;;;5054619;28;20427;-69
2021/09/12 12:44:25;;;;;;;0.40;0.20;;;23.70;99.90;;;;;;5054934;28;20942;-72
2021/09/12 12:46:53;;;;;;;1.63;1.10;;;23.70;1.00;;;;;;5054717;28;20431;-72
2021/09/12 12:49:27;;;;;;;0.80;0.40;;;23.30;1.00;;;;;;5054522;28;20477;-69